createdAt,value
2018-07-17T00:00:03.697Z,20.60
2018-07-17T00:02:32.667Z,20.70
2018-07-17T00:05:01.873Z,20.70
2018-07-17T00:07:30.502Z,20.80
2018-07-17T00:09:59.581Z,20.80
2018-07-17T00:14:56.336Z,20.70
2018-07-17T00:17:25.165Z,20.70
2018-07-17T00:19:53.672Z,20.70
2018-07-17T00:22:22.475Z,20.70
2018-07-17T00:24:51.466Z,20.80
2018-07-17T00:27:20.404Z,20.90
2018-07-17T00:29:49.121Z,20.90
2018-07-17T00:32:17.946Z,20.90
2018-07-17T00:34:46.467Z,20.90
2018-07-17T00:37:15.296Z,20.80
2018-07-17T00:39:44.058Z,20.80
2018-07-17T00:42:12.683Z,20.80
2018-07-17T00:44:41.472Z,20.80
2018-07-17T00:47:10.056Z,20.60
2018-07-17T00:49:38.636Z,20.60
2018-07-17T00:52:07.352Z,20.40
2018-07-17T00:54:36.037Z,20.40
2018-07-17T00:57:04.662Z,20.20
2018-07-17T00:59:33.177Z,20.20
2018-07-17T01:02:06.983Z,20.10
2018-07-17T01:04:40.892Z,20.10
2018-07-17T01:07:14.831Z,20.10
2018-07-17T01:09:48.679Z,20.10
2018-07-17T01:12:16.743Z,20.00
2018-07-17T01:14:50.591Z,19.90
2018-07-17T01:17:19.201Z,19.90
2018-07-17T01:19:47.936Z,19.80
2018-07-17T01:22:17.396Z,19.90
2018-07-17T01:24:46.376Z,19.90
2018-07-17T01:27:14.919Z,19.90
2018-07-17T01:29:43.498Z,19.90
2018-07-17T01:32:12.267Z,19.70
2018-07-17T01:34:40.867Z,19.80
2018-07-17T01:37:09.416Z,19.80
2018-07-17T01:39:38.346Z,19.70
2018-07-17T01:42:07.247Z,19.60
2018-07-17T01:44:36.133Z,19.60
2018-07-17T01:47:05.188Z,19.60
2018-07-17T01:49:34.199Z,19.60
2018-07-17T01:52:02.770Z,19.80
2018-07-17T01:56:59.907Z,19.70
2018-07-17T01:59:28.596Z,19.70
2018-07-17T02:01:57.135Z,19.70
2018-07-17T02:04:25.746Z,19.60
2018-07-17T02:06:54.320Z,19.60
2018-07-17T02:09:23.008Z,19.60
2018-07-17T02:11:51.715Z,19.50
2018-07-17T02:14:20.623Z,19.50
2018-07-17T02:19:17.712Z,19.50
2018-07-17T02:21:46.528Z,19.40
2018-07-17T02:24:15.084Z,19.40
2018-07-17T02:26:44.451Z,19.40
2018-07-17T02:29:13.011Z,19.40
2018-07-17T02:31:42.426Z,19.40
2018-07-17T02:34:11.693Z,19.50
2018-07-17T02:36:40.359Z,19.60
2018-07-17T02:39:09.425Z,19.70
2018-07-17T02:41:38.122Z,19.80
2018-07-17T02:44:06.813Z,19.80
2018-07-17T02:49:19.475Z,19.80
2018-07-17T02:51:48.595Z,19.80
2018-07-17T02:54:18.040Z,19.90
2018-07-17T02:56:46.780Z,19.90
2018-07-17T02:59:15.711Z,19.90
2018-07-17T03:04:13.011Z,20.00
2018-07-17T03:06:42.461Z,19.90
2018-07-17T03:09:11.966Z,19.90
2018-07-17T03:11:40.624Z,19.70
2018-07-17T03:14:09.892Z,19.70
2018-07-17T03:16:39.057Z,19.60
2018-07-17T03:19:07.957Z,19.50
2018-07-17T03:21:36.605Z,19.50
2018-07-17T03:24:05.132Z,19.40
2018-07-17T03:26:34.041Z,19.40
2018-07-17T03:31:31.363Z,19.20
2018-07-17T03:34:00.344Z,19.10
2018-07-17T03:36:29.087Z,19.10
2018-07-17T03:38:57.716Z,19.20
2018-07-17T03:41:26.960Z,19.20
2018-07-17T03:43:55.805Z,19.00
2018-07-17T03:46:24.548Z,19.00
2018-07-17T03:48:53.451Z,19.00
2018-07-17T03:53:50.610Z,19.00
2018-07-17T03:56:19.726Z,19.00
2018-07-17T03:58:48.291Z,19.00
2018-07-17T04:01:17.163Z,19.00
2018-07-17T04:03:45.772Z,19.00
2018-07-17T04:06:14.385Z,19.00
2018-07-17T04:08:42.978Z,18.90
2018-07-17T04:11:11.617Z,18.90
2018-07-17T04:13:40.168Z,18.80
2018-07-17T04:16:09.366Z,18.80
2018-07-17T04:18:37.943Z,18.80
2018-07-17T04:21:06.878Z,18.80
2018-07-17T04:23:35.559Z,18.80
2018-07-17T04:26:04.335Z,18.90
2018-07-17T04:28:33.048Z,18.90
2018-07-17T04:31:03.586Z,18.80
2018-07-17T04:33:32.991Z,18.90
2018-07-17T04:36:01.832Z,18.90
2018-07-17T04:38:31.005Z,18.80
2018-07-17T04:40:59.543Z,18.80
2018-07-17T04:43:28.348Z,18.90
2018-07-17T04:45:56.936Z,18.90
2018-07-17T04:48:25.780Z,18.90
2018-07-17T04:50:55.771Z,18.90
2018-07-17T04:53:24.608Z,18.90
2018-07-17T04:55:53.259Z,19.00
2018-07-17T04:58:21.813Z,19.00
2018-07-17T05:00:52.464Z,19.00
2018-07-17T05:03:21.340Z,19.00
2018-07-17T05:05:50.436Z,19.10
2018-07-17T05:08:19.178Z,19.10
2018-07-17T05:10:48.303Z,19.10
2018-07-17T05:13:16.871Z,19.20
2018-07-17T05:15:45.615Z,19.20
2018-07-17T05:18:14.134Z,19.30
2018-07-17T05:23:10.948Z,19.30
2018-07-17T05:25:39.616Z,19.30
2018-07-17T05:28:08.604Z,19.30
2018-07-17T05:30:37.543Z,19.40
2018-07-17T05:33:06.120Z,19.50
2018-07-17T05:35:34.797Z,19.50
2018-07-17T05:38:03.407Z,19.50
2018-07-17T05:40:32.963Z,19.70
2018-07-17T05:43:01.672Z,19.60
2018-07-17T05:45:30.250Z,19.70
2018-07-17T05:47:58.839Z,19.80
2018-07-17T05:50:28.932Z,20.00
2018-07-17T05:52:57.666Z,20.00
2018-07-17T05:55:27.183Z,20.10
2018-07-17T06:00:24.953Z,20.20
2018-07-17T06:02:53.476Z,20.20
2018-07-17T06:05:22.074Z,20.20
2018-07-17T06:07:50.608Z,20.30
2018-07-17T06:12:47.443Z,20.30
2018-07-17T06:15:16.142Z,20.40
2018-07-17T06:17:44.698Z,20.50
2018-07-17T06:20:13.659Z,20.70
2018-07-17T06:22:42.550Z,20.70
2018-07-17T06:25:12.537Z,20.90
2018-07-17T06:27:41.580Z,21.00
2018-07-17T06:30:10.791Z,21.00
2018-07-17T06:32:40.593Z,21.10
2018-07-17T06:35:10.200Z,21.20
2018-07-17T06:37:47.544Z,21.30
2018-07-17T06:40:16.482Z,21.40
2018-07-17T06:42:46.148Z,21.60
2018-07-17T06:45:14.796Z,21.70
2018-07-17T06:47:44.419Z,21.80
2018-07-17T06:50:13.919Z,21.90
2018-07-17T06:52:42.841Z,22.00
2018-07-17T06:55:11.994Z,22.10
2018-07-17T06:57:42.212Z,22.30
2018-07-17T07:00:10.825Z,22.50
2018-07-17T07:02:39.935Z,22.80
2018-07-17T07:05:08.951Z,23.00
2018-07-17T07:07:37.700Z,23.20
2018-07-17T07:10:06.921Z,23.40
2018-07-17T07:12:35.720Z,23.60
2018-07-17T07:15:04.564Z,23.80
2018-07-17T07:17:33.720Z,24.00
2018-07-17T07:20:02.635Z,24.20
2018-07-17T07:22:31.803Z,24.40
2018-07-17T07:25:00.874Z,24.50
2018-07-17T07:27:29.879Z,24.60
2018-07-17T07:30:00.629Z,24.70
2018-07-17T07:34:57.717Z,24.80
2018-07-17T07:37:26.882Z,24.90
2018-07-17T07:39:55.740Z,24.90
2018-07-17T07:42:24.325Z,25.10
2018-07-17T07:44:53.076Z,25.20
2018-07-17T07:47:22.391Z,25.20
2018-07-17T07:49:51.236Z,25.40
2018-07-17T07:52:20.675Z,25.40
2018-07-17T07:54:50.452Z,25.40
2018-07-17T07:57:19.700Z,25.50
2018-07-17T07:59:48.923Z,25.60
2018-07-17T08:02:18.049Z,25.60
2018-07-17T08:04:46.615Z,25.70
2018-07-17T08:07:15.498Z,25.70
2018-07-17T08:09:44.593Z,25.70
2018-07-17T08:12:13.212Z,25.70
2018-07-17T08:14:42.325Z,25.80
2018-07-17T08:17:11.401Z,25.80
2018-07-17T08:19:41.140Z,25.90
2018-07-17T08:22:10.673Z,26.00
2018-07-17T08:24:39.953Z,25.90
2018-07-17T08:27:08.917Z,26.00
2018-07-17T08:29:38.073Z,26.00
2018-07-17T08:32:07.190Z,25.90
2018-07-17T08:34:36.850Z,25.90
2018-07-17T08:37:05.548Z,26.00
2018-07-17T08:39:35.095Z,26.10
2018-07-17T08:42:04.126Z,26.00
2018-07-17T08:44:33.181Z,26.10
2018-07-17T08:47:03.084Z,26.10
2018-07-17T08:52:00.207Z,26.20
2018-07-17T08:54:29.101Z,26.20
2018-07-17T08:56:57.985Z,26.20
2018-07-17T08:59:28.067Z,26.20
2018-07-17T09:04:25.790Z,26.20
2018-07-17T09:06:55.344Z,26.20
2018-07-17T09:09:24.172Z,26.20
2018-07-17T09:11:52.783Z,26.20
2018-07-17T09:14:22.428Z,26.20
2018-07-17T09:16:51.320Z,26.20
2018-07-17T09:21:49.968Z,26.20
2018-07-17T09:24:19.389Z,26.20
2018-07-17T09:26:48.379Z,26.20
2018-07-17T09:29:17.263Z,26.20
2018-07-17T09:31:46.828Z,26.20
2018-07-17T09:34:16.166Z,26.30
2018-07-17T09:36:45.070Z,26.20
2018-07-17T09:39:13.941Z,26.20
2018-07-17T09:41:44.091Z,26.20
2018-07-17T09:44:13.751Z,26.30
2018-07-17T09:46:42.772Z,26.20
2018-07-17T09:49:12.618Z,26.20
2018-07-17T09:51:41.658Z,26.20
2018-07-17T09:54:11.260Z,26.20
2018-07-17T09:56:40.236Z,26.30
2018-07-17T09:59:09.399Z,26.30
2018-07-17T10:01:43.896Z,26.30
2018-07-17T10:04:12.740Z,26.30
2018-07-17T10:06:41.843Z,26.20
2018-07-17T10:09:11.311Z,26.20
2018-07-17T10:11:39.941Z,26.30
2018-07-17T10:14:09.581Z,26.40
2018-07-17T10:16:38.183Z,26.30
2018-07-17T10:19:07.018Z,26.40
2018-07-17T10:21:36.320Z,26.50
2018-07-17T10:24:05.480Z,26.50
2018-07-17T10:26:34.293Z,26.50
2018-07-17T10:29:03.007Z,26.40
2018-07-17T10:31:32.225Z,26.30
2018-07-17T10:34:01.152Z,26.30
2018-07-17T10:36:29.771Z,26.40
2018-07-17T10:38:58.417Z,26.40
2018-07-17T10:41:27.297Z,26.40
2018-07-17T10:43:55.962Z,26.40
2018-07-17T10:46:26.191Z,26.40
2018-07-17T10:48:54.807Z,26.30
2018-07-17T10:51:23.680Z,26.30
2018-07-17T10:53:52.377Z,26.30
2018-07-17T10:56:21.144Z,26.30
2018-07-17T10:58:49.742Z,26.30
2018-07-17T11:01:18.972Z,26.50
2018-07-17T11:03:48.010Z,26.50
2018-07-17T11:06:16.754Z,26.60
2018-07-17T11:08:45.952Z,26.70
2018-07-17T11:11:15.098Z,26.70
2018-07-17T11:13:44.506Z,26.70
2018-07-17T11:16:13.163Z,26.80
2018-07-17T11:18:42.007Z,26.80
2018-07-17T11:21:13.017Z,26.80
2018-07-17T11:23:41.731Z,26.70
2018-07-17T11:26:10.432Z,26.70
2018-07-17T11:28:39.014Z,26.70
2018-07-17T11:31:07.896Z,26.70
2018-07-17T11:33:36.757Z,26.80
2018-07-17T11:36:05.810Z,26.80
2018-07-17T11:38:34.503Z,27.00
2018-07-17T11:41:03.427Z,27.00
2018-07-17T11:43:32.333Z,26.90
2018-07-17T11:46:01.762Z,26.90
2018-07-17T11:48:30.618Z,27.10
2018-07-17T11:50:59.468Z,27.10
2018-07-17T11:53:28.485Z,27.10
2018-07-17T11:55:57.183Z,27.10
2018-07-17T11:58:26.174Z,26.90
2018-07-17T12:00:54.958Z,26.90
2018-07-17T12:03:23.901Z,26.90
2018-07-17T12:05:53.002Z,27.10
2018-07-17T12:08:24.094Z,27.30
2018-07-17T12:10:53.417Z,27.40
2018-07-17T12:13:22.359Z,27.40
2018-07-17T12:15:51.028Z,27.50
2018-07-17T12:18:20.294Z,27.60
2018-07-17T12:20:49.069Z,27.50
2018-07-17T12:23:18.472Z,27.50
2018-07-17T12:25:47.119Z,27.50
2018-07-17T12:28:16.166Z,27.60
2018-07-17T12:30:45.177Z,27.60
2018-07-17T12:33:14.357Z,27.70
2018-07-17T12:35:43.112Z,27.80
2018-07-17T12:38:12.986Z,27.80
2018-07-17T12:43:10.808Z,27.80
2018-07-17T12:45:39.747Z,27.80
2018-07-17T12:48:11.570Z,27.70
2018-07-17T12:50:40.984Z,27.80
2018-07-17T12:53:10.385Z,27.80
2018-07-17T12:55:39.519Z,27.70
2018-07-17T12:58:08.372Z,27.70
2018-07-17T13:00:37.331Z,27.70
2018-07-17T13:03:06.979Z,27.80
2018-07-17T13:05:35.920Z,27.90
2018-07-17T13:08:04.756Z,27.90
2018-07-17T13:10:33.707Z,27.80
2018-07-17T13:13:02.930Z,27.70
2018-07-17T13:15:31.977Z,27.70
2018-07-17T13:18:00.817Z,27.70
2018-07-17T13:20:29.566Z,27.80
2018-07-17T13:22:59.045Z,27.80
2018-07-17T13:25:27.886Z,27.70
2018-07-17T13:27:56.732Z,27.60
2018-07-17T13:30:26.172Z,27.50
2018-07-17T13:32:57.117Z,27.60
2018-07-17T13:35:26.054Z,27.70
2018-07-17T13:37:56.750Z,27.90
2018-07-17T13:40:26.345Z,28.20
2018-07-17T13:42:55.615Z,28.30
2018-07-17T13:45:24.647Z,28.40
2018-07-17T13:47:55.788Z,28.50
2018-07-17T13:50:25.134Z,28.50
2018-07-17T13:52:53.775Z,28.60
2018-07-17T13:55:22.378Z,28.80
2018-07-17T13:57:51.693Z,28.80
2018-07-17T14:00:21.227Z,28.90
2018-07-17T14:02:50.296Z,28.90
2018-07-17T14:05:19.877Z,28.90
2018-07-17T14:07:49.597Z,28.70
2018-07-17T14:10:18.788Z,28.60
2018-07-17T14:12:47.699Z,28.60
2018-07-17T14:15:16.799Z,28.50
2018-07-17T14:17:46.552Z,28.50
2018-07-17T14:20:16.564Z,28.50
2018-07-17T14:22:45.517Z,28.40
2018-07-17T14:25:14.107Z,28.40
2018-07-17T14:27:43.120Z,28.40
2018-07-17T14:30:12.984Z,28.20
2018-07-17T14:32:41.696Z,28.10
2018-07-17T14:35:10.490Z,28.10
2018-07-17T14:37:39.194Z,28.10
2018-07-17T14:40:08.184Z,27.90
2018-07-17T14:42:37.663Z,27.90
2018-07-17T14:45:07.343Z,27.90
2018-07-17T14:50:05.153Z,27.70
2018-07-17T14:52:34.877Z,27.70
2018-07-17T14:55:04.072Z,27.70
2018-07-17T14:57:32.660Z,27.80
2018-07-17T15:00:01.682Z,27.80
2018-07-17T15:02:31.558Z,27.80
2018-07-17T15:05:01.067Z,27.80
2018-07-17T15:07:30.692Z,27.80
2018-07-17T15:09:59.930Z,27.80
2018-07-17T15:12:30.815Z,27.80
2018-07-17T15:15:00.951Z,27.80
2018-07-17T15:17:30.155Z,27.70
2018-07-17T15:19:59.453Z,27.60
2018-07-17T15:22:28.395Z,27.60
2018-07-17T15:24:59.403Z,27.40
2018-07-17T15:27:28.744Z,27.40
2018-07-17T15:29:57.791Z,27.30
2018-07-17T15:32:26.987Z,27.30
2018-07-17T15:34:56.230Z,27.20
2018-07-17T15:37:25.738Z,27.10
2018-07-17T15:39:54.454Z,27.10
2018-07-17T15:42:24.411Z,27.00
2018-07-17T15:44:53.551Z,27.00
2018-07-17T15:47:22.536Z,26.90
2018-07-17T15:49:51.823Z,26.90
2018-07-17T15:52:20.969Z,26.90
2018-07-17T15:54:49.946Z,26.90
2018-07-17T15:57:18.945Z,26.90
2018-07-17T15:59:49.015Z,26.90
2018-07-17T16:02:17.674Z,26.80
2018-07-17T16:04:46.719Z,26.90
2018-07-17T16:07:15.855Z,26.90
2018-07-17T16:09:45.096Z,26.90
2018-07-17T16:14:43.671Z,26.80
2018-07-17T16:17:12.664Z,26.70
2018-07-17T16:19:41.586Z,26.70
2018-07-17T16:22:10.408Z,26.60
2018-07-17T16:24:39.097Z,26.60
2018-07-17T16:27:08.392Z,26.60
2018-07-17T16:29:36.922Z,26.50
2018-07-17T16:32:06.900Z,26.50
2018-07-17T16:34:36.351Z,26.60
2018-07-17T16:37:05.028Z,26.60
2018-07-17T16:39:33.752Z,26.60
2018-07-17T16:42:02.631Z,26.60
2018-07-17T16:44:31.262Z,26.60
2018-07-17T16:46:59.865Z,26.60
2018-07-17T16:49:28.482Z,26.70
2018-07-17T16:51:57.350Z,26.70
2018-07-17T16:54:26.184Z,26.70
2018-07-17T16:56:55.234Z,26.70
2018-07-17T16:59:24.077Z,26.80
2018-07-17T17:01:53.219Z,26.80
2018-07-17T17:04:22.372Z,26.80
2018-07-17T17:06:50.932Z,26.70
2018-07-17T17:09:19.654Z,26.70
2018-07-17T17:11:48.884Z,26.60
2018-07-17T17:14:17.664Z,26.50
2018-07-17T17:16:46.331Z,26.40
2018-07-17T17:19:14.915Z,26.50
2018-07-17T17:21:43.931Z,26.50
2018-07-17T17:24:12.834Z,26.60
2018-07-17T17:26:41.533Z,26.60
2018-07-17T17:29:10.504Z,26.50
2018-07-17T17:31:39.526Z,26.50
2018-07-17T17:34:08.101Z,26.60
2018-07-17T17:36:37.079Z,26.60
2018-07-17T17:41:36.499Z,26.40
2018-07-17T17:44:06.752Z,26.30
2018-07-17T17:46:35.417Z,26.20
2018-07-17T17:49:04.254Z,26.20
2018-07-17T17:51:32.926Z,26.20
2018-07-17T17:54:02.241Z,26.20
2018-07-17T17:56:31.254Z,26.10
2018-07-17T17:59:00.589Z,26.20
2018-07-17T18:01:29.378Z,26.10
2018-07-17T18:03:58.643Z,26.00
2018-07-17T18:06:27.635Z,26.10
2018-07-17T18:08:56.744Z,26.10
2018-07-17T18:11:25.929Z,26.10
2018-07-17T18:13:54.621Z,26.10
2018-07-17T18:16:23.649Z,26.10
2018-07-17T18:18:52.542Z,26.00
2018-07-17T18:21:21.192Z,25.90
2018-07-17T18:23:49.879Z,25.90
2018-07-17T18:26:19.054Z,25.90
2018-07-17T18:28:47.815Z,25.90
2018-07-17T18:31:17.216Z,25.80
2018-07-17T18:33:46.145Z,25.80
2018-07-17T18:36:15.107Z,25.80
2018-07-17T18:38:43.833Z,25.80
2018-07-17T18:41:12.436Z,25.80
2018-07-17T18:43:42.068Z,25.70
2018-07-17T18:48:42.984Z,25.60
2018-07-17T18:51:12.543Z,25.60
2018-07-17T18:53:41.351Z,25.60
2018-07-17T18:56:10.335Z,25.50
2018-07-17T18:58:38.934Z,25.50
2018-07-17T19:01:07.594Z,25.40
2018-07-17T19:03:36.835Z,25.40
2018-07-17T19:06:06.504Z,25.40
2018-07-17T19:08:35.715Z,25.40
2018-07-17T19:11:05.006Z,25.30
2018-07-17T19:13:33.608Z,25.30
2018-07-17T19:16:02.230Z,25.20
2018-07-17T19:18:31.164Z,25.30
2018-07-17T19:20:59.797Z,25.20
2018-07-17T19:23:28.719Z,25.20
2018-07-17T19:28:25.828Z,25.20
2018-07-17T19:30:54.564Z,25.20
2018-07-17T19:33:23.136Z,25.20
2018-07-17T19:35:52.184Z,25.10
2018-07-17T19:38:20.843Z,25.10
2018-07-17T19:40:49.489Z,25.10
2018-07-17T19:43:18.243Z,25.10
2018-07-17T19:45:47.207Z,25.10
2018-07-17T19:50:44.708Z,25.00
2018-07-17T19:53:13.519Z,25.00
2018-07-17T19:55:42.226Z,25.00
2018-07-17T19:58:10.955Z,25.00
2018-07-17T20:00:39.919Z,25.00
2018-07-17T20:03:08.953Z,25.00
2018-07-17T20:05:38.096Z,25.00
2018-07-17T20:08:07.418Z,25.00
2018-07-17T20:10:36.102Z,24.90
2018-07-17T20:13:04.846Z,24.90
2018-07-17T20:15:34.067Z,24.80
2018-07-17T20:18:04.271Z,24.90
2018-07-17T20:20:33.755Z,24.80
2018-07-17T20:23:02.668Z,24.80
2018-07-17T20:25:31.653Z,24.80
2018-07-17T20:28:00.437Z,24.70
2018-07-17T20:30:29.747Z,24.70
2018-07-17T20:32:58.667Z,24.70
2018-07-17T20:35:27.462Z,24.70
2018-07-17T20:37:56.563Z,24.60
2018-07-17T20:40:25.726Z,24.60
2018-07-17T20:42:54.643Z,24.60
2018-07-17T20:45:23.346Z,24.60
2018-07-17T20:47:52.380Z,24.50
2018-07-17T20:50:22.382Z,24.60
2018-07-17T20:52:51.493Z,24.50
2018-07-17T20:55:20.630Z,24.50
2018-07-17T20:57:49.725Z,24.50
2018-07-17T21:00:18.292Z,24.50
2018-07-17T21:02:47.182Z,24.40
2018-07-17T21:05:15.827Z,24.30
2018-07-17T21:07:44.414Z,24.30
2018-07-17T21:10:13.015Z,24.30
2018-07-17T21:12:42.005Z,24.30
2018-07-17T21:15:10.572Z,24.30
2018-07-17T21:17:39.374Z,24.20
2018-07-17T21:20:08.059Z,24.20
2018-07-17T21:22:36.679Z,24.10
2018-07-17T21:25:05.841Z,24.10
2018-07-17T21:27:34.525Z,24.10
2018-07-17T21:30:03.423Z,24.20
2018-07-17T21:32:32.077Z,24.10
2018-07-17T21:35:01.734Z,24.20
2018-07-17T21:37:30.701Z,24.20
2018-07-17T21:39:59.436Z,24.20
2018-07-17T21:42:28.764Z,24.20
2018-07-17T21:44:57.683Z,24.10
2018-07-17T21:47:26.414Z,24.20
2018-07-17T21:49:55.577Z,24.10
2018-07-17T21:52:24.426Z,24.10
2018-07-17T21:54:53.420Z,24.00
2018-07-17T21:57:21.956Z,24.00
2018-07-17T21:59:51.097Z,24.00
2018-07-17T22:02:19.663Z,23.90
2018-07-17T22:04:48.198Z,24.00
2018-07-17T22:07:16.859Z,23.90
2018-07-17T22:09:45.392Z,23.90
2018-07-17T22:12:13.988Z,23.90
2018-07-17T22:14:42.694Z,23.90
2018-07-17T22:17:11.385Z,23.90
2018-07-17T22:19:40.149Z,23.80
2018-07-17T22:22:09.230Z,23.70
2018-07-17T22:24:37.966Z,23.70
2018-07-17T22:27:06.657Z,23.50
2018-07-17T22:29:35.458Z,23.40
2018-07-17T22:32:04.440Z,23.50
2018-07-17T22:34:33.024Z,23.50
2018-07-17T22:37:01.963Z,23.50
2018-07-17T22:39:30.716Z,23.60
2018-07-17T22:41:59.337Z,23.50
2018-07-17T22:44:28.330Z,23.40
2018-07-17T22:46:57.322Z,23.40
2018-07-17T22:49:26.235Z,23.30
2018-07-17T22:51:55.610Z,23.30
2018-07-17T22:54:24.403Z,23.40
2018-07-17T22:56:53.393Z,23.30
2018-07-17T22:59:22.209Z,23.30
2018-07-17T23:01:50.876Z,23.20
2018-07-17T23:04:19.883Z,23.20
2018-07-17T23:06:48.717Z,23.20
2018-07-17T23:09:19.202Z,23.10
2018-07-17T23:11:48.215Z,23.00
2018-07-17T23:14:16.881Z,22.90
2018-07-17T23:16:45.510Z,22.80
2018-07-17T23:19:14.145Z,22.80
2018-07-17T23:21:42.758Z,22.70
2018-07-17T23:24:11.397Z,22.70
2018-07-17T23:26:40.188Z,22.60
2018-07-17T23:29:10.020Z,22.50
2018-07-17T23:31:38.716Z,22.40
2018-07-17T23:34:09.131Z,22.40
2018-07-17T23:36:37.873Z,22.40
2018-07-17T23:39:09.117Z,22.40
2018-07-17T23:41:37.942Z,22.30
2018-07-17T23:44:07.832Z,22.30
2018-07-17T23:46:37.286Z,22.20
2018-07-17T23:49:06.162Z,22.20
2018-07-17T23:51:36.117Z,22.30
2018-07-17T23:54:05.576Z,22.40
2018-07-17T23:56:34.947Z,22.40
2018-07-17T23:59:03.556Z,22.40
